sensor_id;sensor_type;location;lat;lon;timestamp;pressure;altitude;pressure_sealevel;temperature;humidity
40838;BME280;29632;49.168;9.848;2023-04-15T00:00:37;95816.28;;;12.05;43.22
40838;BME280;29632;49.168;9.848;2023-04-15T00:03:02;95816.28;;;12.05;43.17
40838;BME280;29632;49.168;9.848;2023-04-15T00:05:29;95823.94;;;12.07;43.06
40838;BME280;29632;49.168;9.848;2023-04-15T00:07:56;95816.09;;;12.07;43.10
40838;BME280;29632;49.168;9.848;2023-04-15T00:10:24;95816.09;;;12.07;43.38
40838;BME280;29632;49.168;9.848;2023-04-15T00:12:50;95816.28;;;12.05;43.32
40838;BME280;29632;49.168;9.848;2023-04-15T00:15:16;95818.44;;;12.02;43.18
40838;BME280;29632;49.168;9.848;2023-04-15T00:17:42;95818.59;;;12.00;43.31
40838;BME280;29632;49.168;9.848;2023-04-15T00:20:08;95817.00;;;11.99;43.35
40838;BME280;29632;49.168;9.848;2023-04-15T00:22:34;95825.97;;;11.97;43.38
40838;BME280;29632;49.168;9.848;2023-04-15T00:25:00;95823.38;;;11.97;43.40
40838;BME280;29632;49.168;9.848;2023-04-15T00:27:26;95823.09;;;11.92;43.39
40838;BME280;29632;49.168;9.848;2023-04-15T00:29:52;95820.66;;;11.90;43.45
40838;BME280;29632;49.168;9.848;2023-04-15T00:32:17;95830.63;;;11.86;43.30
40838;BME280;29632;49.168;9.848;2023-04-15T00:34:44;95812.88;;;11.82;43.45
40838;BME280;29632;49.168;9.848;2023-04-15T00:37:10;95814.56;;;11.75;43.27
40838;BME280;29632;49.168;9.848;2023-04-15T00:39:37;95817.50;;;11.71;43.45
40838;BME280;29632;49.168;9.848;2023-04-15T00:42:06;95817.69;;;11.70;43.30
40838;BME280;29632;49.168;9.848;2023-04-15T00:44:32;95812.63;;;11.68;43.57
40838;BME280;29632;49.168;9.848;2023-04-15T00:46:59;95810.56;;;11.64;43.64
40838;BME280;29632;49.168;9.848;2023-04-15T00:49:25;95806.97;;;11.65;43.61
40838;BME280;29632;49.168;9.848;2023-04-15T00:51:51;95801.75;;;11.65;43.57
40838;BME280;29632;49.168;9.848;2023-04-15T00:54:17;95806.63;;;11.68;43.61
40838;BME280;29632;49.168;9.848;2023-04-15T00:56:42;95806.44;;;11.69;43.32
40838;BME280;29632;49.168;9.848;2023-04-15T00:59:08;95805.66;;;11.69;43.50
40838;BME280;29632;49.168;9.848;2023-04-15T01:01:34;95807.59;;;11.67;43.45
40838;BME280;29632;49.168;9.848;2023-04-15T01:04:01;95810.84;;;11.69;43.71
40838;BME280;29632;49.168;9.848;2023-04-15T01:06:27;95813.25;;;11.70;43.54
40838;BME280;29632;49.168;9.848;2023-04-15T01:08:54;95809.06;;;11.69;43.28
40838;BME280;29632;49.168;9.848;2023-04-15T01:11:20;95815.69;;;11.72;43.67
40838;BME280;29632;49.168;9.848;2023-04-15T01:13:46;95805.28;;;11.72;43.53
40838;BME280;29632;49.168;9.848;2023-04-15T01:16:13;95807.25;;;11.70;43.60
40838;BME280;29632;49.168;9.848;2023-04-15T01:18:38;95810.03;;;11.68;43.67
40838;BME280;29632;49.168;9.848;2023-04-15T01:21:05;95810.19;;;11.67;43.51
40838;BME280;29632;49.168;9.848;2023-04-15T01:23:35;95798.50;;;11.63;43.40
40838;BME280;29632;49.168;9.848;2023-04-15T01:26:01;95798.66;;;11.61;43.63
40838;BME280;29632;49.168;9.848;2023-04-15T01:28:28;95807.66;;;11.59;43.68
40838;BME280;29632;49.168;9.848;2023-04-15T01:31:12;95802.63;;;11.57;43.50
40838;BME280;29632;49.168;9.848;2023-04-15T01:33:40;95802.63;;;11.57;43.53
40838;BME280;29632;49.168;9.848;2023-04-15T01:36:07;95802.00;;;11.55;43.48
40838;BME280;29632;49.168;9.848;2023-04-15T01:38:34;95804.59;;;11.55;43.49
40838;BME280;29632;49.168;9.848;2023-04-15T01:41:00;95799.38;;;11.55;43.43
40838;BME280;29632;49.168;9.848;2023-04-15T01:43:26;95804.78;;;11.53;44.13
40838;BME280;29632;49.168;9.848;2023-04-15T01:45:52;95803.31;;;11.51;43.59
40838;BME280;29632;49.168;9.848;2023-04-15T01:48:18;95806.91;;;11.50;43.46
40838;BME280;29632;49.168;9.848;2023-04-15T01:50:44;95801.88;;;11.48;43.63
40838;BME280;29632;49.168;9.848;2023-04-15T01:53:10;95799.44;;;11.47;43.72
40838;BME280;29632;49.168;9.848;2023-04-15T01:55:35;95804.19;;;11.43;43.64
40838;BME280;29632;49.168;9.848;2023-04-15T01:58:02;95806.97;;;11.42;43.66
40838;BME280;29632;49.168;9.848;2023-04-15T02:00:27;95804.69;;;11.39;43.91
40838;BME280;29632;49.168;9.848;2023-04-15T02:02:53;95799.63;;;11.37;43.44
40838;BME280;29632;49.168;9.848;2023-04-15T02:05:19;95806.81;;;11.35;43.67
40838;BME280;29632;49.168;9.848;2023-04-15T02:07:44;95794.13;;;11.32;43.86
40838;BME280;29632;49.168;9.848;2023-04-15T02:10:10;95793.50;;;11.30;43.82
40838;BME280;29632;49.168;9.848;2023-04-15T02:12:38;95791.69;;;11.30;43.70
40838;BME280;29632;49.168;9.848;2023-04-15T02:15:04;95793.34;;;11.31;43.70
40838;BME280;29632;49.168;9.848;2023-04-15T02:17:33;95788.44;;;11.28;43.74
40838;BME280;29632;49.168;9.848;2023-04-15T02:19:59;95794.50;;;11.29;43.58
40838;BME280;29632;49.168;9.848;2023-04-15T02:22:25;95783.59;;;11.25;43.98
40838;BME280;29632;49.168;9.848;2023-04-15T02:24:51;95786.38;;;11.24;43.83
40838;BME280;29632;49.168;9.848;2023-04-15T02:27:17;95788.00;;;11.25;43.78
40838;BME280;29632;49.168;9.848;2023-04-15T02:29:43;95788.31;;;11.22;43.77
40838;BME280;29632;49.168;9.848;2023-04-15T02:32:10;95783.47;;;11.19;43.93
40838;BME280;29632;49.168;9.848;2023-04-15T02:34:36;95778.78;;;11.14;43.86
40838;BME280;29632;49.168;9.848;2023-04-15T02:37:10;95783.34;;;11.12;44.11
40838;BME280;29632;49.168;9.848;2023-04-15T02:39:35;95776.88;;;11.08;44.24
40838;BME280;29632;49.168;9.848;2023-04-15T02:42:02;95776.66;;;11.09;44.24
40838;BME280;29632;49.168;9.848;2023-04-15T02:44:27;95782.53;;;11.11;44.06
40838;BME280;29632;49.168;9.848;2023-04-15T02:46:53;95789.53;;;11.11;44.17
40838;BME280;29632;49.168;9.848;2023-04-15T02:49:20;95781.53;;;11.12;43.80
40838;BME280;29632;49.168;9.848;2023-04-15T02:51:46;95784.63;;;11.16;44.09
40838;BME280;29632;49.168;9.848;2023-04-15T02:54:18;95781.22;;;11.15;43.98
40838;BME280;29632;49.168;9.848;2023-04-15T02:56:44;95784.94;;;11.13;43.72
40838;BME280;29632;49.168;9.848;2023-04-15T02:59:11;95786.41;;;11.15;43.71
40838;BME280;29632;49.168;9.848;2023-04-15T03:01:37;95783.97;;;11.14;44.10
40838;BME280;29632;49.168;9.848;2023-04-15T03:04:02;95782.34;;;11.13;44.06
40838;BME280;29632;49.168;9.848;2023-04-15T03:06:29;95782.19;;;11.14;43.86
40838;BME280;29632;49.168;9.848;2023-04-15T03:08:55;95786.09;;;11.19;44.03
40838;BME280;29632;49.168;9.848;2023-04-15T03:11:21;95793.53;;;11.22;43.92
40838;BME280;29632;49.168;9.848;2023-04-15T03:13:47;95793.38;;;11.23;43.80
40838;BME280;29632;49.168;9.848;2023-04-15T03:16:12;95794.84;;;11.26;43.95
40838;BME280;29632;49.168;9.848;2023-04-15T03:18:38;95793.66;;;11.28;44.02
40838;BME280;29632;49.168;9.848;2023-04-15T03:21:04;95791.69;;;11.30;43.89
40838;BME280;29632;49.168;9.848;2023-04-15T03:23:31;95795.13;;;11.31;43.93
40838;BME280;29632;49.168;9.848;2023-04-15T03:25:56;95787.31;;;11.31;43.88
40838;BME280;29632;49.168;9.848;2023-04-15T03:28:23;95789.09;;;11.30;44.00
40838;BME280;29632;49.168;9.848;2023-04-15T03:30:49;95786.69;;;11.29;43.77
40838;BME280;29632;49.168;9.848;2023-04-15T03:33:14;95784.25;;;11.27;43.81
40838;BME280;29632;49.168;9.848;2023-04-15T03:35:40;95784.88;;;11.29;44.05
40838;BME280;29632;49.168;9.848;2023-04-15T03:38:06;95788.28;;;11.30;43.93
40838;BME280;29632;49.168;9.848;2023-04-15T03:40:31;95790.09;;;11.29;44.01
40838;BME280;29632;49.168;9.848;2023-04-15T03:42:57;95792.53;;;11.31;43.99
40838;BME280;29632;49.168;9.848;2023-04-15T03:45:23;95784.72;;;11.31;44.08
40838;BME280;29632;49.168;9.848;2023-04-15T03:47:48;95788.28;;;11.30;43.76
40838;BME280;29632;49.168;9.848;2023-04-15T03:50:14;95790.09;;;11.29;43.72
40838;BME280;29632;49.168;9.848;2023-04-15T03:52:40;95779.66;;;11.29;43.82
40838;BME280;29632;49.168;9.848;2023-04-15T03:55:05;95784.88;;;11.29;43.84
40838;BME280;29632;49.168;9.848;2023-04-15T03:57:31;95787.31;;;11.31;44.14
40838;BME280;29632;49.168;9.848;2023-04-15T04:00:03;95780.63;;;11.28;44.16
40838;BME280;29632;49.168;9.848;2023-04-15T04:02:29;95787.47;;;11.29;43.97
40838;BME280;29632;49.168;9.848;2023-04-15T04:04:55;95779.50;;;11.31;43.84
40838;BME280;29632;49.168;9.848;2023-04-15T04:07:22;95783.88;;;11.30;43.96
40838;BME280;29632;49.168;9.848;2023-04-15T04:09:48;95785.50;;;11.31;43.86
40838;BME280;29632;49.168;9.848;2023-04-15T04:12:13;95785.34;;;11.33;44.29
40838;BME280;29632;49.168;9.848;2023-04-15T04:14:39;95784.72;;;11.31;44.11
40838;BME280;29632;49.168;9.848;2023-04-15T04:17:05;95789.09;;;11.30;43.84
40838;BME280;29632;49.168;9.848;2023-04-15T04:19:31;95782.91;;;11.31;44.06
40838;BME280;29632;49.168;9.848;2023-04-15T04:21:56;95788.91;;;11.32;44.09
40838;BME280;29632;49.168;9.848;2023-04-15T04:24:22;95787.16;;;11.32;44.04
40838;BME280;29632;49.168;9.848;2023-04-15T04:26:48;95783.72;;;11.32;44.03
40838;BME280;29632;49.168;9.848;2023-04-15T04:29:13;95792.53;;;11.31;44.15
40838;BME280;29632;49.168;9.848;2023-04-15T04:31:39;95786.31;;;11.32;44.12
40838;BME280;29632;49.168;9.848;2023-04-15T04:34:05;95787.94;;;11.33;43.95
40838;BME280;29632;49.168;9.848;2023-04-15T04:36:30;95785.16;;;11.34;44.00
40838;BME280;29632;49.168;9.848;2023-04-15T04:38:56;95784.16;;;11.36;44.21
40838;BME280;29632;49.168;9.848;2023-04-15T04:41:22;95791.03;;;11.37;44.09
40838;BME280;29632;49.168;9.848;2023-04-15T04:43:48;95792.66;;;11.38;43.93
40838;BME280;29632;49.168;9.848;2023-04-15T04:46:13;95783.84;;;11.39;43.93
40838;BME280;29632;49.168;9.848;2023-04-15T04:48:39;95788.88;;;11.40;44.03
40838;BME280;29632;49.168;9.848;2023-04-15T04:51:05;95796.69;;;11.40;43.84
40838;BME280;29632;49.168;9.848;2023-04-15T04:53:30;95791.47;;;11.40;44.01
40838;BME280;29632;49.168;9.848;2023-04-15T04:55:56;95789.03;;;11.39;43.83
40838;BME280;29632;49.168;9.848;2023-04-15T04:58:22;95794.25;;;11.39;44.10
40838;BME280;29632;49.168;9.848;2023-04-15T05:00:48;95796.06;;;11.38;43.84
40838;BME280;29632;49.168;9.848;2023-04-15T05:03:13;95790.03;;;11.38;44.06
40838;BME280;29632;49.168;9.848;2023-04-15T05:05:39;95796.06;;;11.38;43.95
40838;BME280;29632;49.168;9.848;2023-04-15T05:08:06;95793.47;;;11.38;43.97
40838;BME280;29632;49.168;9.848;2023-04-15T05:10:32;95792.47;;;11.39;44.07
40838;BME280;29632;49.168;9.848;2023-04-15T05:12:57;95793.28;;;11.40;44.06
40838;BME280;29632;49.168;9.848;2023-04-15T05:15:23;95791.31;;;11.42;43.88
40838;BME280;29632;49.168;9.848;2023-04-15T05:17:49;95782.31;;;11.44;44.02
40838;BME280;29632;49.168;9.848;2023-04-15T05:20:14;95787.53;;;11.44;43.97
40838;BME280;29632;49.168;9.848;2023-04-15T05:22:40;95783.94;;;11.45;43.88
40838;BME280;29632;49.168;9.848;2023-04-15T05:25:06;95790.59;;;11.48;44.01
40838;BME280;29632;49.168;9.848;2023-04-15T05:27:32;95785.88;;;11.51;43.88
40838;BME280;29632;49.168;9.848;2023-04-15T05:29:57;95790.91;;;11.53;44.19
40838;BME280;29632;49.168;9.848;2023-04-15T05:32:23;95792.38;;;11.56;44.08
40838;BME280;29632;49.168;9.848;2023-04-15T05:34:48;95798.84;;;11.60;43.84
40838;BME280;29632;49.168;9.848;2023-04-15T05:37:14;95794.09;;;11.63;43.96
40838;BME280;29632;49.168;9.848;2023-04-15T05:39:40;95798.97;;;11.66;44.19
40838;BME280;29632;49.168;9.848;2023-04-15T05:42:06;95793.41;;;11.69;44.00
40838;BME280;29632;49.168;9.848;2023-04-15T05:44:32;95798.44;;;11.71;44.00
40838;BME280;29632;49.168;9.848;2023-04-15T05:46:58;95810.38;;;11.65;44.38
40838;BME280;29632;49.168;9.848;2023-04-15T05:49:23;95813.69;;;11.59;44.38
40838;BME280;29632;49.168;9.848;2023-04-15T05:51:49;95815.84;;;11.56;44.38
40838;BME280;29632;49.168;9.848;2023-04-15T05:54:15;95817.97;;;11.52;44.37
40838;BME280;29632;49.168;9.848;2023-04-15T05:56:41;95816.97;;;11.53;44.45
40838;BME280;29632;49.168;9.848;2023-04-15T05:59:07;95814.19;;;11.55;44.46
40838;BME280;29632;49.168;9.848;2023-04-15T06:01:33;95824.28;;;11.58;44.33
40838;BME280;29632;49.168;9.848;2023-04-15T06:03:59;95819.72;;;11.60;44.47
40838;BME280;29632;49.168;9.848;2023-04-15T06:06:24;95819.53;;;11.61;44.24
40838;BME280;29632;49.168;9.848;2023-04-15T06:08:51;95812.50;;;11.62;44.34
40838;BME280;29632;49.168;9.848;2023-04-15T06:11:21;95815.13;;;11.62;44.29
40838;BME280;29632;49.168;9.848;2023-04-15T06:13:46;95805.69;;;11.61;44.46
40838;BME280;29632;49.168;9.848;2023-04-15T06:16:12;95811.72;;;11.61;44.47
40838;BME280;29632;49.168;9.848;2023-04-15T06:18:38;95810.09;;;11.60;44.59
40838;BME280;29632;49.168;9.848;2023-04-15T06:21:03;95813.34;;;11.62;44.62
40838;BME280;29632;49.168;9.848;2023-04-15T06:23:29;95812.50;;;11.62;44.52
40838;BME280;29632;49.168;9.848;2023-04-15T06:25:55;95810.56;;;11.64;44.43
40838;BME280;29632;49.168;9.848;2023-04-15T06:28:20;95817.56;;;11.63;44.62
40838;BME280;29632;49.168;9.848;2023-04-15T06:30:46;95816.41;;;11.66;44.65
40838;BME280;29632;49.168;9.848;2023-04-15T06:33:12;95820.47;;;11.68;44.50
40838;BME280;29632;49.168;9.848;2023-04-15T06:35:37;95821.09;;;11.70;44.67
40838;BME280;29632;49.168;9.848;2023-04-15T06:38:03;95817.50;;;11.71;44.60
40838;BME280;29632;49.168;9.848;2023-04-15T06:40:29;95825.97;;;11.74;44.44
40838;BME280;29632;49.168;9.848;2023-04-15T06:42:55;95823.53;;;11.72;44.65
40838;BME280;29632;49.168;9.848;2023-04-15T06:45:21;95829.56;;;11.73;44.79
40838;BME280;29632;49.168;9.848;2023-04-15T06:47:47;95830.66;;;11.78;44.72
40838;BME280;29632;49.168;9.848;2023-04-15T06:50:12;95826.53;;;11.84;44.51
40838;BME280;29632;49.168;9.848;2023-04-15T06:52:39;95833.03;;;11.88;44.49
40838;BME280;29632;49.168;9.848;2023-04-15T06:55:05;95833.69;;;11.90;44.42
40838;BME280;29632;49.168;9.848;2023-04-15T06:57:31;95826.19;;;11.95;44.72
40838;BME280;29632;49.168;9.848;2023-04-15T06:59:57;95830.69;;;12.01;44.41
40838;BME280;29632;49.168;9.848;2023-04-15T07:02:22;95829.16;;;12.07;44.78
40838;BME280;29632;49.168;9.848;2023-04-15T07:04:48;95838.09;;;12.13;44.58
40838;BME280;29632;49.168;9.848;2023-04-15T07:07:13;95835.75;;;12.18;44.69
40838;BME280;29632;49.168;9.848;2023-04-15T07:09:40;95837.03;;;12.22;44.58
40838;BME280;29632;49.168;9.848;2023-04-15T07:12:06;95833.06;;;12.26;44.41
40838;BME280;29632;49.168;9.848;2023-04-15T07:14:31;95829.50;;;12.27;44.43
40838;BME280;29632;49.168;9.848;2023-04-15T07:16:57;95829.09;;;12.30;44.60
40838;BME280;29632;49.168;9.848;2023-04-15T07:19:22;95830.22;;;12.36;44.38
40838;BME280;29632;49.168;9.848;2023-04-15T07:21:48;95828.69;;;12.41;44.49
40838;BME280;29632;49.168;9.848;2023-04-15T07:24:14;95823.75;;;12.46;44.37
40838;BME280;29632;49.168;9.848;2023-04-15T07:26:44;95829.25;;;12.52;44.36
40838;BME280;29632;49.168;9.848;2023-04-15T07:29:10;95829.34;;;12.58;44.65
40838;BME280;29632;49.168;9.848;2023-04-15T07:31:35;95819.16;;;12.63;44.49
40838;BME280;29632;49.168;9.848;2023-04-15T07:34:02;95823.47;;;12.71;44.60
40838;BME280;29632;49.168;9.848;2023-04-15T07:36:29;95824.38;;;12.78;44.47
40838;BME280;29632;49.168;9.848;2023-04-15T07:38:54;95818.78;;;12.81;44.51
40838;BME280;29632;49.168;9.848;2023-04-15T07:41:20;95834.56;;;12.88;44.64
40838;BME280;29632;49.168;9.848;2023-04-15T07:43:46;95819.78;;;12.95;44.62
40838;BME280;29632;49.168;9.848;2023-04-15T07:46:13;95827.72;;;13.02;44.40
40838;BME280;29632;49.168;9.848;2023-04-15T07:48:39;95831.38;;;13.08;44.35
40838;BME280;29632;49.168;9.848;2023-04-15T07:51:04;95829.03;;;13.13;44.50
40838;BME280;29632;49.168;9.848;2023-04-15T07:53:30;95830.72;;;13.20;44.06
40838;BME280;29632;49.168;9.848;2023-04-15T07:55:57;95827.22;;;13.28;44.39
40838;BME280;29632;49.168;9.848;2023-04-15T07:58:23;95828.75;;;13.37;44.04
40838;BME280;29632;49.168;9.848;2023-04-15T08:00:49;95831.06;;;13.47;44.59
40838;BME280;29632;49.168;9.848;2023-04-15T08:03:14;95828.13;;;13.57;44.17
40838;BME280;29632;49.168;9.848;2023-04-15T08:05:40;95829.63;;;13.66;43.96
40838;BME280;29632;49.168;9.848;2023-04-15T08:08:06;95827.91;;;13.73;44.22
40838;BME280;29632;49.168;9.848;2023-04-15T08:10:32;95828.78;;;13.81;43.98
40838;BME280;29632;49.168;9.848;2023-04-15T08:12:58;95833.25;;;13.87;44.07
40838;BME280;29632;49.168;9.848;2023-04-15T08:15:24;95829.91;;;13.93;44.32
40838;BME280;29632;49.168;9.848;2023-04-15T08:17:50;95832.13;;;13.96;44.10
40838;BME280;29632;49.168;9.848;2023-04-15T08:20:15;95834.00;;;14.02;43.81
40838;BME280;29632;49.168;9.848;2023-04-15T08:22:41;95831.00;;;14.05;43.98
40838;BME280;29632;49.168;9.848;2023-04-15T08:25:07;95832.25;;;14.09;43.90
40838;BME280;29632;49.168;9.848;2023-04-15T08:27:33;95827.63;;;14.11;43.96
40838;BME280;29632;49.168;9.848;2023-04-15T08:29:59;95834.50;;;14.12;44.01
40838;BME280;29632;49.168;9.848;2023-04-15T08:32:25;95833.69;;;14.12;44.14
40838;BME280;29632;49.168;9.848;2023-04-15T08:34:51;95832.06;;;14.11;44.10
40838;BME280;29632;49.168;9.848;2023-04-15T08:37:17;95830.25;;;14.11;44.33
40838;BME280;29632;49.168;9.848;2023-04-15T08:39:44;95837.72;;;14.14;44.22
40838;BME280;29632;49.168;9.848;2023-04-15T08:42:14;95830.31;;;14.18;44.02
40838;BME280;29632;49.168;9.848;2023-04-15T08:44:40;95831.53;;;14.22;44.18
40838;BME280;29632;49.168;9.848;2023-04-15T08:47:07;95838.81;;;14.27;44.21
40838;BME280;29632;49.168;9.848;2023-04-15T08:49:38;95832.84;;;14.33;44.09
40838;BME280;29632;49.168;9.848;2023-04-15T08:52:03;95835.25;;;14.34;44.05
40838;BME280;29632;49.168;9.848;2023-04-15T08:54:30;95835.72;;;14.38;43.87
40838;BME280;29632;49.168;9.848;2023-04-15T08:56:57;95834.94;;;14.44;44.31
40838;BME280;29632;49.168;9.848;2023-04-15T08:59:23;95834.97;;;14.51;44.01
40838;BME280;29632;49.168;9.848;2023-04-15T09:01:49;95838.63;;;14.57;44.05
40838;BME280;29632;49.168;9.848;2023-04-15T09:04:17;95845.59;;;14.64;44.16
40838;BME280;29632;49.168;9.848;2023-04-15T09:06:43;95836.13;;;14.70;43.93
40838;BME280;29632;49.168;9.848;2023-04-15T09:09:09;95829.91;;;14.78;44.15
40838;BME280;29632;49.168;9.848;2023-04-15T09:11:36;95835.00;;;14.86;43.89
40838;BME280;29632;49.168;9.848;2023-04-15T09:14:02;95833.03;;;14.95;44.11
40838;BME280;29632;49.168;9.848;2023-04-15T09:16:28;95839.72;;;15.04;43.93
40838;BME280;29632;49.168;9.848;2023-04-15T09:18:53;95831.91;;;15.10;43.68
40838;BME280;29632;49.168;9.848;2023-04-15T09:21:19;95835.75;;;15.15;43.54
40838;BME280;29632;49.168;9.848;2023-04-15T09:23:56;95837.78;;;15.19;43.49
40838;BME280;29632;49.168;9.848;2023-04-15T09:26:36;95844.25;;;15.23;43.49
40838;BME280;29632;49.168;9.848;2023-04-15T09:29:06;95839.84;;;15.30;43.54
40838;BME280;29632;49.168;9.848;2023-04-15T09:31:34;95847.72;;;15.37;43.59
40838;BME280;29632;49.168;9.848;2023-04-15T09:34:00;95845.13;;;15.44;43.69
40838;BME280;29632;49.168;9.848;2023-04-15T09:36:26;95848.97;;;15.48;43.52
40838;BME280;29632;49.168;9.848;2023-04-15T09:38:56;95849.63;;;15.50;43.59
40838;BME280;29632;49.168;9.848;2023-04-15T09:41:21;95852.66;;;15.54;43.60
40838;BME280;29632;49.168;9.848;2023-04-15T09:43:47;95854.06;;;15.56;43.59
40838;BME280;29632;49.168;9.848;2023-04-15T09:46:13;95852.03;;;15.58;43.51
40838;BME280;29632;49.168;9.848;2023-04-15T09:48:38;95856.69;;;15.63;43.53
40838;BME280;29632;49.168;9.848;2023-04-15T09:51:04;95853.69;;;15.66;43.74
40838;BME280;29632;49.168;9.848;2023-04-15T09:53:33;95850.03;;;15.67;43.52
40838;BME280;29632;49.168;9.848;2023-04-15T09:55:59;95856.53;;;15.71;43.58
40838;BME280;29632;49.168;9.848;2023-04-15T09:58:28;95853.13;;;15.77;43.54
40838;BME280;29632;49.168;9.848;2023-04-15T10:00:56;95857.00;;;15.81;43.36
40838;BME280;29632;49.168;9.848;2023-04-15T10:03:27;95854.34;;;15.88;43.45
40838;BME280;29632;49.168;9.848;2023-04-15T10:05:54;95851.34;;;15.91;43.49
40838;BME280;29632;49.168;9.848;2023-04-15T10:08:22;95861.44;;;15.94;43.45
40838;BME280;29632;49.168;9.848;2023-04-15T10:10:49;95860.03;;;15.98;43.50
40838;BME280;29632;49.168;9.848;2023-04-15T10:13:18;95858.41;;;16.04;43.50
40838;BME280;29632;49.168;9.848;2023-04-15T10:15:47;95866.50;;;16.09;43.49
40838;BME280;29632;49.168;9.848;2023-04-15T10:18:15;95860.66;;;16.14;43.33
40838;BME280;29632;49.168;9.848;2023-04-15T10:20:43;95862.88;;;16.17;43.24
40838;BME280;29632;49.168;9.848;2023-04-15T10:23:09;95858.63;;;16.16;43.41
40838;BME280;29632;49.168;9.848;2023-04-15T10:25:36;95858.63;;;16.09;43.33
40838;BME280;29632;49.168;9.848;2023-04-15T10:28:02;95855.59;;;16.05;43.61
40838;BME280;29632;49.168;9.848;2023-04-15T10:30:28;95866.28;;;16.04;43.75
40838;BME280;29632;49.168;9.848;2023-04-15T10:32:53;95859.84;;;16.07;43.63
40838;BME280;29632;49.168;9.848;2023-04-15T10:35:20;95869.34;;;16.08;43.70
40838;BME280;29632;49.168;9.848;2023-04-15T10:37:46;95858.41;;;16.11;43.58
40838;BME280;29632;49.168;9.848;2023-04-15T10:40:31;95869.34;;;16.14;43.54
40838;BME280;29632;49.168;9.848;2023-04-15T10:42:58;95860.47;;;16.15;43.60
40838;BME280;29632;49.168;9.848;2023-04-15T10:45:35;95869.53;;;16.19;43.31
40838;BME280;29632;49.168;9.848;2023-04-15T10:48:02;95863.47;;;16.19;43.74
40838;BME280;29632;49.168;9.848;2023-04-15T10:50:30;95874.59;;;16.21;43.68
40838;BME280;29632;49.168;9.848;2023-04-15T10:52:56;95863.88;;;16.22;43.64
40838;BME280;29632;49.168;9.848;2023-04-15T10:55:24;95870.56;;;16.25;43.94
40838;BME280;29632;49.168;9.848;2023-04-15T10:57:54;95870.16;;;16.28;43.17
40838;BME280;29632;49.168;9.848;2023-04-15T11:00:30;95880.25;;;16.31;43.55
40838;BME280;29632;49.168;9.848;2023-04-15T11:03:06;95875.59;;;16.33;43.64
40838;BME280;29632;49.168;9.848;2023-04-15T11:08:10;95873.59;;;16.35;43.31
40838;BME280;29632;49.168;9.848;2023-04-15T11:15:44;95875.19;;;16.56;43.12
40838;BME280;29632;49.168;9.848;2023-04-15T11:18:11;95879.06;;;16.60;43.02
40838;BME280;29632;49.168;9.848;2023-04-15T11:20:41;95885.31;;;16.66;42.95
40838;BME280;29632;49.168;9.848;2023-04-15T11:23:07;95879.25;;;16.72;42.88
40838;BME280;29632;49.168;9.848;2023-04-15T11:25:34;95882.88;;;16.78;42.77
40838;BME280;29632;49.168;9.848;2023-04-15T11:28:02;95886.69;;;16.75;42.79
40838;BME280;29632;49.168;9.848;2023-04-15T11:30:33;95886.50;;;16.77;42.63
40838;BME280;29632;49.168;9.848;2023-04-15T11:33:01;95890.97;;;16.76;42.59
40838;BME280;29632;49.168;9.848;2023-04-15T11:35:27;95893.78;;;16.75;42.76
40838;BME280;29632;49.168;9.848;2023-04-15T11:37:53;95893.41;;;16.71;42.68
40838;BME280;29632;49.168;9.848;2023-04-15T11:40:24;95895.63;;;16.68;42.65
40838;BME280;29632;49.168;9.848;2023-04-15T11:43:19;95896.41;;;16.68;42.59
40838;BME280;29632;49.168;9.848;2023-04-15T11:45:55;95895.81;;;16.66;42.67
40838;BME280;29632;49.168;9.848;2023-04-15T11:48:25;95898.66;;;16.65;42.71
40838;BME280;29632;49.168;9.848;2023-04-15T11:50:56;95896.81;;;16.65;42.62
40838;BME280;29632;49.168;9.848;2023-04-15T11:53:22;95905.53;;;16.66;42.56
40838;BME280;29632;49.168;9.848;2023-04-15T11:55:50;95901.69;;;16.61;42.72
40838;BME280;29632;49.168;9.848;2023-04-15T11:58:23;95913.44;;;16.66;42.46
40838;BME280;29632;49.168;9.848;2023-04-15T12:03:27;95913.63;;;16.64;42.43
40838;BME280;29632;49.168;9.848;2023-04-15T12:08:51;95925.34;;;16.68;42.33
40838;BME280;29632;49.168;9.848;2023-04-15T12:11:18;95918.69;;;16.66;42.21
40838;BME280;29632;49.168;9.848;2023-04-15T12:13:48;95920.28;;;16.67;42.22
40838;BME280;29632;49.168;9.848;2023-04-15T12:16:20;95926.16;;;16.69;42.18
40838;BME280;29632;49.168;9.848;2023-04-15T12:18:53;95928.56;;;16.70;42.01
40838;BME280;29632;49.168;9.848;2023-04-15T12:21:21;95941.31;;;16.73;42.17
40838;BME280;29632;49.168;9.848;2023-04-15T12:26:14;95934.66;;;16.71;41.79
40838;BME280;29632;49.168;9.848;2023-04-15T12:28:40;95950.81;;;16.68;41.67
40838;BME280;29632;49.168;9.848;2023-04-15T12:31:09;95945.38;;;16.63;41.76
40838;BME280;29632;49.168;9.848;2023-04-15T12:33:35;95940.31;;;16.61;41.99
40838;BME280;29632;49.168;9.848;2023-04-15T12:36:01;95944.56;;;16.62;41.89
40838;BME280;29632;49.168;9.848;2023-04-15T12:38:28;95953.06;;;16.64;41.78
40838;BME280;29632;49.168;9.848;2023-04-15T12:40:54;95960.94;;;16.64;41.68
40838;BME280;29632;49.168;9.848;2023-04-15T12:43:20;95962.38;;;16.60;41.65
40838;BME280;29632;49.168;9.848;2023-04-15T12:45:46;95962.75;;;16.57;41.75
40838;BME280;29632;49.168;9.848;2023-04-15T12:48:12;95972.88;;;16.53;41.76
40838;BME280;29632;49.168;9.848;2023-04-15T12:50:37;95980.16;;;16.51;41.70
40838;BME280;29632;49.168;9.848;2023-04-15T12:53:03;95984.78;;;16.49;41.75
40838;BME280;29632;49.168;9.848;2023-04-15T12:55:29;95992.25;;;16.46;41.71
40838;BME280;29632;49.168;9.848;2023-04-15T12:57:55;95994.47;;;16.42;41.86
40838;BME280;29632;49.168;9.848;2023-04-15T13:00:21;95993.47;;;16.43;41.73
40838;BME280;29632;49.168;9.848;2023-04-15T13:02:47;95994.06;;;16.45;41.56
40838;BME280;29632;49.168;9.848;2023-04-15T13:05:13;96002.75;;;16.46;41.64
40838;BME280;29632;49.168;9.848;2023-04-15T13:07:41;96000.97;;;16.46;41.56
40838;BME280;29632;49.168;9.848;2023-04-15T13:10:07;96002.75;;;16.46;41.51
40838;BME280;29632;49.168;9.848;2023-04-15T13:12:33;96006.63;;;16.43;41.46